sensor_id;sensor_type;location;lat;lon;timestamp;temperature;humidity
51021;DHT22;38907;45.562;8.856;2023-04-06T00:03:24;6.90;93.00
51021;DHT22;38907;45.562;8.856;2023-04-06T00:08:26;6.90;93.30
51021;DHT22;38907;45.562;8.856;2023-04-06T00:13:29;6.90;93.30
51021;DHT22;38907;45.562;8.856;2023-04-06T00:18:32;6.70;93.30
51021;DHT22;38907;45.562;8.856;2023-04-06T00:23:34;6.90;92.70
51021;DHT22;38907;45.562;8.856;2023-04-06T00:28:36;7.00;92.50
51021;DHT22;38907;45.562;8.856;2023-04-06T00:33:40;6.90;92.30
51021;DHT22;38907;45.562;8.856;2023-04-06T00:38:42;6.70;92.20
51021;DHT22;38907;45.562;8.856;2023-04-06T00:43:43;6.70;92.20
51021;DHT22;38907;45.562;8.856;2023-04-06T00:48:47;6.90;92.10
51021;DHT22;38907;45.562;8.856;2023-04-06T00:53:49;6.70;92.10
51021;DHT22;38907;45.562;8.856;2023-04-06T00:58:51;6.60;92.20
51021;DHT22;38907;45.562;8.856;2023-04-06T01:03:54;6.60;92.90
51021;DHT22;38907;45.562;8.856;2023-04-06T01:08:56;6.80;92.70
51021;DHT22;38907;45.562;8.856;2023-04-06T01:13:58;6.60;92.90
51021;DHT22;38907;45.562;8.856;2023-04-06T01:19:04;6.40;93.20
51021;DHT22;38907;45.562;8.856;2023-04-06T01:24:10;6.30;93.60
51021;DHT22;38907;45.562;8.856;2023-04-06T01:29:12;6.40;93.40
51021;DHT22;38907;45.562;8.856;2023-04-06T01:34:14;6.30;93.40
51021;DHT22;38907;45.562;8.856;2023-04-06T01:39:18;6.20;93.20
51021;DHT22;38907;45.562;8.856;2023-04-06T01:44:20;6.20;92.90
51021;DHT22;38907;45.562;8.856;2023-04-06T01:49:22;6.10;92.80
51021;DHT22;38907;45.562;8.856;2023-04-06T01:54:25;6.00;92.90
51021;DHT22;38907;45.562;8.856;2023-04-06T01:59:27;6.00;92.70
51021;DHT22;38907;45.562;8.856;2023-04-06T02:04:29;6.10;92.50
51021;DHT22;38907;45.562;8.856;2023-04-06T02:09:33;6.10;92.60
51021;DHT22;38907;45.562;8.856;2023-04-06T02:14:35;5.90;92.70
51021;DHT22;38907;45.562;8.856;2023-04-06T02:19:36;6.00;92.70
51021;DHT22;38907;45.562;8.856;2023-04-06T02:24:40;5.80;92.90
51021;DHT22;38907;45.562;8.856;2023-04-06T02:29:42;5.70;92.80
51021;DHT22;38907;45.562;8.856;2023-04-06T02:34:44;5.70;93.10
51021;DHT22;38907;45.562;8.856;2023-04-06T02:39:47;5.70;92.80
51021;DHT22;38907;45.562;8.856;2023-04-06T02:44:49;5.80;92.80
51021;DHT22;38907;45.562;8.856;2023-04-06T02:49:51;6.00;92.40
51021;DHT22;38907;45.562;8.856;2023-04-06T02:54:54;6.00;92.50
51021;DHT22;38907;45.562;8.856;2023-04-06T02:59:56;5.80;92.60
51021;DHT22;38907;45.562;8.856;2023-04-06T03:04:58;5.70;92.80
51021;DHT22;38907;45.562;8.856;2023-04-06T03:10:01;5.60;92.90
51021;DHT22;38907;45.562;8.856;2023-04-06T03:15:04;5.60;93.20
51021;DHT22;38907;45.562;8.856;2023-04-06T03:20:06;5.60;92.90
51021;DHT22;38907;45.562;8.856;2023-04-06T03:25:10;5.60;93.10
51021;DHT22;38907;45.562;8.856;2023-04-06T03:30:13;5.50;93.10
51021;DHT22;38907;45.562;8.856;2023-04-06T03:35:16;5.40;93.30
51021;DHT22;38907;45.562;8.856;2023-04-06T03:40:19;5.60;93.10
51021;DHT22;38907;45.562;8.856;2023-04-06T03:45:21;5.30;93.20
51021;DHT22;38907;45.562;8.856;2023-04-06T03:50:23;5.30;93.20
51021;DHT22;38907;45.562;8.856;2023-04-06T03:55:27;5.40;93.40
51021;DHT22;38907;45.562;8.856;2023-04-06T04:00:29;5.40;93.20
51021;DHT22;38907;45.562;8.856;2023-04-06T04:05:31;5.40;93.50
51021;DHT22;38907;45.562;8.856;2023-04-06T04:10:34;5.30;93.30
51021;DHT22;38907;45.562;8.856;2023-04-06T04:15:36;5.40;93.60
51021;DHT22;38907;45.562;8.856;2023-04-06T04:20:38;5.20;93.70
51021;DHT22;38907;45.562;8.856;2023-04-06T04:25:42;5.20;93.90
51021;DHT22;38907;45.562;8.856;2023-04-06T04:30:45;5.00;93.90
51021;DHT22;38907;45.562;8.856;2023-04-06T04:35:47;4.90;93.80
51021;DHT22;38907;45.562;8.856;2023-04-06T04:40:50;5.10;94.20
51021;DHT22;38907;45.562;8.856;2023-04-06T04:45:52;5.10;94.40
51021;DHT22;38907;45.562;8.856;2023-04-06T04:50:54;4.90;94.70
51021;DHT22;38907;45.562;8.856;2023-04-06T04:55:58;4.90;94.90
51021;DHT22;38907;45.562;8.856;2023-04-06T05:01:00;4.90;95.00
51021;DHT22;38907;45.562;8.856;2023-04-06T05:06:02;5.00;94.80
51021;DHT22;38907;45.562;8.856;2023-04-06T05:11:05;4.90;95.30
51021;DHT22;38907;45.562;8.856;2023-04-06T05:16:07;4.90;95.40
51021;DHT22;38907;45.562;8.856;2023-04-06T05:21:10;4.90;95.20
51021;DHT22;38907;45.562;8.856;2023-04-06T05:26:14;4.80;95.50
51021;DHT22;38907;45.562;8.856;2023-04-06T05:31:16;4.70;95.60
51021;DHT22;38907;45.562;8.856;2023-04-06T05:36:18;4.70;96.00
51021;DHT22;38907;45.562;8.856;2023-04-06T05:41:22;4.80;96.20
51021;DHT22;38907;45.562;8.856;2023-04-06T05:46:24;4.80;96.20
51021;DHT22;38907;45.562;8.856;2023-04-06T05:51:28;4.90;96.20
51021;DHT22;38907;45.562;8.856;2023-04-06T05:56:31;5.00;95.90
51021;DHT22;38907;45.562;8.856;2023-04-06T06:01:33;5.20;96.00
51021;DHT22;38907;45.562;8.856;2023-04-06T06:06:35;5.50;95.00
51021;DHT22;38907;45.562;8.856;2023-04-06T06:11:39;5.50;94.80
51021;DHT22;38907;45.562;8.856;2023-04-06T06:16:41;5.60;95.00
51021;DHT22;38907;45.562;8.856;2023-04-06T06:21:43;5.80;94.30
51021;DHT22;38907;45.562;8.856;2023-04-06T06:26:46;5.90;94.40
51021;DHT22;38907;45.562;8.856;2023-04-06T06:31:49;6.20;94.20
51021;DHT22;38907;45.562;8.856;2023-04-06T06:36:51;6.40;94.30
51021;DHT22;38907;45.562;8.856;2023-04-06T06:41:56;6.70;93.40
51021;DHT22;38907;45.562;8.856;2023-04-06T06:47:01;6.80;92.30
51021;DHT22;38907;45.562;8.856;2023-04-06T06:52:03;7.20;92.30
51021;DHT22;38907;45.562;8.856;2023-04-06T06:57:06;7.40;91.40
51021;DHT22;38907;45.562;8.856;2023-04-06T07:02:08;7.80;89.20
51021;DHT22;38907;45.562;8.856;2023-04-06T07:07:10;8.00;86.90
51021;DHT22;38907;45.562;8.856;2023-04-06T07:12:13;8.20;85.50
51021;DHT22;38907;45.562;8.856;2023-04-06T07:17:16;8.30;85.60
51021;DHT22;38907;45.562;8.856;2023-04-06T07:22:18;8.60;84.50
51021;DHT22;38907;45.562;8.856;2023-04-06T07:27:22;8.80;83.90
51021;DHT22;38907;45.562;8.856;2023-04-06T07:32:24;8.80;80.90
51021;DHT22;38907;45.562;8.856;2023-04-06T07:37:27;8.90;81.40
51021;DHT22;38907;45.562;8.856;2023-04-06T07:42:30;9.20;79.20
51021;DHT22;38907;45.562;8.856;2023-04-06T07:47:33;9.30;82.80
51021;DHT22;38907;45.562;8.856;2023-04-06T07:52:35;9.60;78.70
51021;DHT22;38907;45.562;8.856;2023-04-06T07:57:39;9.80;75.50
51021;DHT22;38907;45.562;8.856;2023-04-06T08:02:41;9.90;75.30
51021;DHT22;38907;45.562;8.856;2023-04-06T08:07:43;9.90;72.50
51021;DHT22;38907;45.562;8.856;2023-04-06T08:49:35;10.20;71.10
51021;DHT22;38907;45.562;8.856;2023-04-06T08:54:39;10.70;72.80
51021;DHT22;38907;45.562;8.856;2023-04-06T08:59:41;10.50;70.80
51021;DHT22;38907;45.562;8.856;2023-04-06T09:04:46;10.60;72.50
51021;DHT22;38907;45.562;8.856;2023-04-06T09:09:49;11.00;72.30
51021;DHT22;38907;45.562;8.856;2023-04-06T09:14:52;10.80;71.20
51021;DHT22;38907;45.562;8.856;2023-04-06T09:19:55;10.80;71.20
51021;DHT22;38907;45.562;8.856;2023-04-06T09:24:57;11.10;72.70
51021;DHT22;38907;45.562;8.856;2023-04-06T09:30:06;11.10;71.80
51021;DHT22;38907;45.562;8.856;2023-04-06T09:35:11;11.20;72.00
51021;DHT22;38907;45.562;8.856;2023-04-06T09:40:13;11.40;74.10
51021;DHT22;38907;45.562;8.856;2023-04-06T09:45:18;11.50;72.70
51021;DHT22;38907;45.562;8.856;2023-04-06T09:50:23;11.60;74.80
51021;DHT22;38907;45.562;8.856;2023-04-06T09:55:30;11.90;77.20
51021;DHT22;38907;45.562;8.856;2023-04-06T10:00:34;11.50;71.70
51021;DHT22;38907;45.562;8.856;2023-04-06T10:05:48;11.70;73.50
51021;DHT22;38907;45.562;8.856;2023-04-06T10:10:52;11.40;72.50
51021;DHT22;38907;45.562;8.856;2023-04-06T10:15:54;11.70;73.60
51021;DHT22;38907;45.562;8.856;2023-04-06T10:21:04;11.80;73.00
51021;DHT22;38907;45.562;8.856;2023-04-06T10:26:13;12.00;75.00
51021;DHT22;38907;45.562;8.856;2023-04-06T10:31:24;11.70;73.30
51021;DHT22;38907;45.562;8.856;2023-04-06T10:36:32;11.50;73.60
51021;DHT22;38907;45.562;8.856;2023-04-06T10:41:35;12.20;77.00
51021;DHT22;38907;45.562;8.856;2023-04-06T10:46:37;12.00;74.30
51021;DHT22;38907;45.562;8.856;2023-04-06T10:51:40;11.90;73.70
51021;DHT22;38907;45.562;8.856;2023-04-06T10:56:43;12.10;73.30
51021;DHT22;38907;45.562;8.856;2023-04-06T11:01:45;12.20;78.00
51021;DHT22;38907;45.562;8.856;2023-04-06T11:06:49;12.60;75.40
51021;DHT22;38907;45.562;8.856;2023-04-06T11:11:51;12.90;76.20
51021;DHT22;38907;45.562;8.856;2023-04-06T11:16:53;12.70;76.00
51021;DHT22;38907;45.562;8.856;2023-04-06T11:22:06;12.80;74.10
51021;DHT22;38907;45.562;8.856;2023-04-06T11:27:08;12.60;74.20
51021;DHT22;38907;45.562;8.856;2023-04-06T11:32:10;12.70;76.00
51021;DHT22;38907;45.562;8.856;2023-04-06T11:37:14;13.10;77.30
51021;DHT22;38907;45.562;8.856;2023-04-06T11:42:22;13.30;75.20
51021;DHT22;38907;45.562;8.856;2023-04-06T11:47:30;13.40;75.00
51021;DHT22;38907;45.562;8.856;2023-04-06T11:52:34;13.40;77.00
51021;DHT22;38907;45.562;8.856;2023-04-06T11:57:35;13.30;72.90
51021;DHT22;38907;45.562;8.856;2023-04-06T12:02:38;13.10;73.30
51021;DHT22;38907;45.562;8.856;2023-04-06T12:07:41;13.60;72.90
51021;DHT22;38907;45.562;8.856;2023-04-06T12:12:43;13.40;74.00
51021;DHT22;38907;45.562;8.856;2023-04-06T12:17:45;14.10;76.00
51021;DHT22;38907;45.562;8.856;2023-04-06T12:22:49;14.00;75.50
51021;DHT22;38907;45.562;8.856;2023-04-06T12:27:51;13.60;72.70
51021;DHT22;38907;45.562;8.856;2023-04-06T12:32:53;13.80;73.80
51021;DHT22;38907;45.562;8.856;2023-04-06T12:37:57;13.70;73.30
51021;DHT22;38907;45.562;8.856;2023-04-06T12:42:59;13.60;74.80
51021;DHT22;38907;45.562;8.856;2023-04-06T12:48:01;13.50;72.40
51021;DHT22;38907;45.562;8.856;2023-04-06T12:53:04;13.70;74.00
51021;DHT22;38907;45.562;8.856;2023-04-06T12:58:07;13.80;73.80
51021;DHT22;38907;45.562;8.856;2023-04-06T13:03:09;13.90;71.80
51021;DHT22;38907;45.562;8.856;2023-04-06T13:08:12;13.80;72.30
51021;DHT22;38907;45.562;8.856;2023-04-06T13:13:15;13.90;72.60
51021;DHT22;38907;45.562;8.856;2023-04-06T13:18:17;14.00;73.30
51021;DHT22;38907;45.562;8.856;2023-04-06T13:23:20;13.80;72.70
51021;DHT22;38907;45.562;8.856;2023-04-06T13:28:22;13.90;69.80
51021;DHT22;38907;45.562;8.856;2023-04-06T13:33:24;13.80;71.10
51021;DHT22;38907;45.562;8.856;2023-04-06T13:38:28;13.90;75.60
51021;DHT22;38907;45.562;8.856;2023-04-06T13:43:29;13.90;73.20
51021;DHT22;38907;45.562;8.856;2023-04-06T13:48:31;14.20;72.50
51021;DHT22;38907;45.562;8.856;2023-04-06T13:53:35;13.90;71.80
51021;DHT22;38907;45.562;8.856;2023-04-06T13:58:37;14.10;73.50
51021;DHT22;38907;45.562;8.856;2023-04-06T14:03:39;13.90;71.70
51021;DHT22;38907;45.562;8.856;2023-04-06T14:08:43;14.10;72.00
51021;DHT22;38907;45.562;8.856;2023-04-06T14:13:45;14.30;70.10
51021;DHT22;38907;45.562;8.856;2023-04-06T14:18:47;14.50;69.40
51021;DHT22;38907;45.562;8.856;2023-04-06T14:23:51;14.30;70.40
51021;DHT22;38907;45.562;8.856;2023-04-06T14:28:53;14.00;70.60
51021;DHT22;38907;45.562;8.856;2023-04-06T14:33:54;14.00;71.30
51021;DHT22;38907;45.562;8.856;2023-04-06T14:38:58;13.90;70.80
51021;DHT22;38907;45.562;8.856;2023-04-06T14:44:00;14.00;71.50
51021;DHT22;38907;45.562;8.856;2023-04-06T14:49:03;14.10;71.20
51021;DHT22;38907;45.562;8.856;2023-04-06T14:54:06;13.90;69.40
51021;DHT22;38907;45.562;8.856;2023-04-06T14:59:08;13.90;72.00
51021;DHT22;38907;45.562;8.856;2023-04-06T15:04:10;13.90;71.40
51021;DHT22;38907;45.562;8.856;2023-04-06T15:09:13;13.90;71.90
51021;DHT22;38907;45.562;8.856;2023-04-06T15:14:15;13.90;72.40
51021;DHT22;38907;45.562;8.856;2023-04-06T15:19:17;13.80;72.30
51021;DHT22;38907;45.562;8.856;2023-04-06T15:24:20;13.60;70.90
51021;DHT22;38907;45.562;8.856;2023-04-06T15:29:22;13.50;71.50
51021;DHT22;38907;45.562;8.856;2023-04-06T15:34:25;13.60;75.60
51021;DHT22;38907;45.562;8.856;2023-04-06T15:39:32;13.70;73.90
51021;DHT22;38907;45.562;8.856;2023-04-06T15:44:34;13.50;71.10
51021;DHT22;38907;45.562;8.856;2023-04-06T15:49:36;13.50;73.00
51021;DHT22;38907;45.562;8.856;2023-04-06T15:54:39;13.40;73.80
51021;DHT22;38907;45.562;8.856;2023-04-06T15:59:41;13.50;73.80
51021;DHT22;38907;45.562;8.856;2023-04-06T16:04:43;13.40;74.10
51021;DHT22;38907;45.562;8.856;2023-04-06T16:09:46;13.30;74.40
51021;DHT22;38907;45.562;8.856;2023-04-06T16:14:48;13.30;74.30
51021;DHT22;38907;45.562;8.856;2023-04-06T16:19:50;13.20;75.30
51021;DHT22;38907;45.562;8.856;2023-04-06T16:24:53;13.20;74.60
51021;DHT22;38907;45.562;8.856;2023-04-06T16:29:55;13.20;77.90
51021;DHT22;38907;45.562;8.856;2023-04-06T16:34:57;13.20;76.50
51021;DHT22;38907;45.562;8.856;2023-04-06T16:40:00;13.20;76.60
51021;DHT22;38907;45.562;8.856;2023-04-06T16:45:04;13.10;75.80
51021;DHT22;38907;45.562;8.856;2023-04-06T16:50:07;13.20;75.50
51021;DHT22;38907;45.562;8.856;2023-04-06T16:55:10;13.20;74.40
51021;DHT22;38907;45.562;8.856;2023-04-06T17:00:12;13.10;74.10
51021;DHT22;38907;45.562;8.856;2023-04-06T17:05:14;13.10;75.30
51021;DHT22;38907;45.562;8.856;2023-04-06T17:10:21;13.00;76.70
51021;DHT22;38907;45.562;8.856;2023-04-06T17:15:23;13.00;76.70
51021;DHT22;38907;45.562;8.856;2023-04-06T17:20:27;12.90;76.70
51021;DHT22;38907;45.562;8.856;2023-04-06T17:25:31;12.90;76.70
51021;DHT22;38907;45.562;8.856;2023-04-06T17:30:32;12.90;75.70
51021;DHT22;38907;45.562;8.856;2023-04-06T17:35:34;12.90;75.40
51021;DHT22;38907;45.562;8.856;2023-04-06T17:40:38;12.90;75.60
51021;DHT22;38907;45.562;8.856;2023-04-06T17:45:39;12.80;76.30
51021;DHT22;38907;45.562;8.856;2023-04-06T17:50:42;12.70;76.60
51021;DHT22;38907;45.562;8.856;2023-04-06T17:55:45;12.70;76.90
51021;DHT22;38907;45.562;8.856;2023-04-06T18:00:47;12.50;77.70
51021;DHT22;38907;45.562;8.856;2023-04-06T18:05:49;12.50;78.20
51021;DHT22;38907;45.562;8.856;2023-04-06T18:10:52;12.60;76.10
51021;DHT22;38907;45.562;8.856;2023-04-06T18:15:54;12.60;76.40
51021;DHT22;38907;45.562;8.856;2023-04-06T18:20:56;12.40;76.90
51021;DHT22;38907;45.562;8.856;2023-04-06T18:26:00;12.40;77.30
51021;DHT22;38907;45.562;8.856;2023-04-06T18:31:02;12.40;77.20
51021;DHT22;38907;45.562;8.856;2023-04-06T18:36:04;12.30;77.60
51021;DHT22;38907;45.562;8.856;2023-04-06T18:41:07;12.20;77.60
51021;DHT22;38907;45.562;8.856;2023-04-06T18:46:10;12.20;78.90
51021;DHT22;38907;45.562;8.856;2023-04-06T18:51:13;12.10;78.90
51021;DHT22;38907;45.562;8.856;2023-04-06T18:56:17;12.00;80.20
51021;DHT22;38907;45.562;8.856;2023-04-06T19:01:21;11.90;81.20
51021;DHT22;38907;45.562;8.856;2023-04-06T19:06:22;12.00;84.60
51021;DHT22;38907;45.562;8.856;2023-04-06T19:11:27;11.70;84.30
51021;DHT22;38907;45.562;8.856;2023-04-06T19:16:30;11.50;85.60
51021;DHT22;38907;45.562;8.856;2023-04-06T19:21:32;11.00;88.10
51021;DHT22;38907;45.562;8.856;2023-04-06T19:26:35;11.00;87.80
51021;DHT22;38907;45.562;8.856;2023-04-06T19:31:37;11.10;88.40
51021;DHT22;38907;45.562;8.856;2023-04-06T19:36:39;11.10;90.20
51021;DHT22;38907;45.562;8.856;2023-04-06T19:41:42;11.00;90.20
51021;DHT22;38907;45.562;8.856;2023-04-06T19:46:44;10.40;91.40
51021;DHT22;38907;45.562;8.856;2023-04-06T19:51:46;10.20;91.00
51021;DHT22;38907;45.562;8.856;2023-04-06T19:56:50;9.90;91.00
51021;DHT22;38907;45.562;8.856;2023-04-06T20:01:51;9.80;90.20
51021;DHT22;38907;45.562;8.856;2023-04-06T20:06:53;9.80;90.30
51021;DHT22;38907;45.562;8.856;2023-04-06T20:11:57;9.80;90.00
51021;DHT22;38907;45.562;8.856;2023-04-06T20:17:00;10.10;90.00
51021;DHT22;38907;45.562;8.856;2023-04-06T20:22:02;9.90;91.10
51021;DHT22;38907;45.562;8.856;2023-04-06T20:27:05;9.90;91.80
51021;DHT22;38907;45.562;8.856;2023-04-06T20:32:08;9.70;92.70
51021;DHT22;38907;45.562;8.856;2023-04-06T20:37:11;9.90;92.80
51021;DHT22;38907;45.562;8.856;2023-04-06T20:42:14;9.90;92.80
51021;DHT22;38907;45.562;8.856;2023-04-06T20:47:16;10.00;92.60
51021;DHT22;38907;45.562;8.856;2023-04-06T20:52:18;10.00;92.30
51021;DHT22;38907;45.562;8.856;2023-04-06T20:57:22;10.00;92.90
51021;DHT22;38907;45.562;8.856;2023-04-06T21:02:24;10.10;92.80
51021;DHT22;38907;45.562;8.856;2023-04-06T21:07:26;9.70;93.70
51021;DHT22;38907;45.562;8.856;2023-04-06T21:12:32;9.30;94.70
51021;DHT22;38907;45.562;8.856;2023-04-06T21:17:34;8.90;95.70
51021;DHT22;38907;45.562;8.856;2023-04-06T21:22:36;9.20;95.70
51021;DHT22;38907;45.562;8.856;2023-04-06T21:27:40;8.90;96.10
51021;DHT22;38907;45.562;8.856;2023-04-06T21:32:42;9.10;95.40
51021;DHT22;38907;45.562;8.856;2023-04-06T21:37:45;9.20;96.90
51021;DHT22;38907;45.562;8.856;2023-04-06T21:42:48;9.10;97.30
51021;DHT22;38907;45.562;8.856;2023-04-06T21:47:50;9.10;96.30
51021;DHT22;38907;45.562;8.856;2023-04-06T21:52:52;8.40;97.10
51021;DHT22;38907;45.562;8.856;2023-04-06T21:57:56;8.00;97.50
51021;DHT22;38907;45.562;8.856;2023-04-06T22:02:58;8.50;97.20
51021;DHT22;38907;45.562;8.856;2023-04-06T22:07:59;8.30;96.90
51021;DHT22;38907;45.562;8.856;2023-04-06T22:13:04;8.30;97.00
51021;DHT22;38907;45.562;8.856;2023-04-06T22:18:05;8.30;97.10
51021;DHT22;38907;45.562;8.856;2023-04-06T22:23:08;8.30;97.30
51021;DHT22;38907;45.562;8.856;2023-04-06T22:28:11;8.50;97.50
51021;DHT22;38907;45.562;8.856;2023-04-06T22:33:13;8.80;97.00
51021;DHT22;38907;45.562;8.856;2023-04-06T22:38:15;8.10;98.40
51021;DHT22;38907;45.562;8.856;2023-04-06T22:43:18;7.90;98.80
51021;DHT22;38907;45.562;8.856;2023-04-06T22:48:20;8.20;98.80
51021;DHT22;38907;45.562;8.856;2023-04-06T22:53:22;8.50;98.40
51021;DHT22;38907;45.562;8.856;2023-04-06T22:58:25;8.60;97.90
51021;DHT22;38907;45.562;8.856;2023-04-06T23:03:27;8.00;99.10
51021;DHT22;38907;45.562;8.856;2023-04-06T23:08:29;7.30;99.90
51021;DHT22;38907;45.562;8.856;2023-04-06T23:13:32;7.00;99.90
51021;DHT22;38907;45.562;8.856;2023-04-06T23:18:34;7.60;99.90
51021;DHT22;38907;45.562;8.856;2023-04-06T23:23:36;7.90;99.90
51021;DHT22;38907;45.562;8.856;2023-04-06T23:28:39;7.60;99.90
51021;DHT22;38907;45.562;8.856;2023-04-06T23:33:41;6.60;99.90
51021;DHT22;38907;45.562;8.856;2023-04-06T23:38:43;7.30;99.90
51021;DHT22;38907;45.562;8.856;2023-04-06T23:43:46;7.70;99.90
51021;DHT22;38907;45.562;8.856;2023-04-06T23:48:48;6.90;99.90
51021;DHT22;38907;45.562;8.856;2023-04-06T23:53:50;6.70;99.90
51021;DHT22;38907;45.562;8.856;2023-04-06T23:58:53;7.10;99.90
